createdAt,value
2023-04-25T00:02:00.696Z,9.23
2023-04-25T00:04:28.780Z,9.18
2023-04-25T00:06:57.047Z,9.12
2023-04-25T00:09:24.885Z,9.11
2023-04-25T00:11:52.640Z,9.06
2023-04-25T00:14:20.552Z,9.00
2023-04-25T00:16:49.342Z,8.95
2023-04-25T00:19:17.160Z,8.90
2023-04-25T00:21:47.238Z,8.87
2023-04-25T00:24:15.442Z,8.81
2023-04-25T00:26:43.284Z,8.82
2023-04-25T00:29:11.248Z,8.75
2023-04-25T00:31:39.661Z,8.70
2023-04-25T00:34:09.275Z,8.71
2023-04-25T00:36:37.436Z,8.69
2023-04-25T00:39:05.596Z,8.68
2023-04-25T00:41:34.212Z,8.68
2023-04-25T00:44:04.305Z,8.67
2023-04-25T00:46:32.429Z,8.65
2023-04-25T00:49:00.238Z,8.64
2023-04-25T00:51:28.162Z,8.59
2023-04-25T00:53:56.036Z,8.56
2023-04-25T00:56:24.048Z,8.56
2023-04-25T00:58:57.385Z,8.50
2023-04-25T01:01:25.730Z,8.48
2023-04-25T01:03:55.253Z,8.42
2023-04-25T01:06:23.977Z,8.40
2023-04-25T01:08:52.847Z,8.38
2023-04-25T01:11:21.068Z,8.40
2023-04-25T01:13:49.238Z,8.37
2023-04-25T01:16:17.366Z,8.35
2023-04-25T01:18:46.590Z,8.35
2023-04-25T01:21:14.708Z,8.35
2023-04-25T01:23:43.419Z,8.35
2023-04-25T01:26:13.108Z,8.35
2023-04-25T01:28:44.529Z,8.32
2023-04-25T01:31:13.887Z,8.30
2023-04-25T01:33:41.743Z,8.27
2023-04-25T01:36:10.429Z,8.25
2023-04-25T01:38:38.360Z,8.25
2023-04-25T01:41:06.334Z,8.22
2023-04-25T01:43:34.665Z,8.19
2023-04-25T01:46:02.671Z,8.15
2023-04-25T01:48:30.576Z,8.12
2023-04-25T01:50:59.286Z,8.10
2023-04-25T01:53:27.458Z,8.11
2023-04-25T01:55:56.048Z,8.09
2023-04-25T01:58:25.998Z,8.07
2023-04-25T02:01:14.324Z,8.04
2023-04-25T02:03:45.913Z,8.01
2023-04-25T02:06:28.294Z,7.98
2023-04-25T02:08:58.535Z,7.92
2023-04-25T02:11:26.563Z,7.88
2023-04-25T02:14:06.076Z,7.90
2023-04-25T02:16:40.644Z,7.85
2023-04-25T02:19:09.066Z,7.81
2023-04-25T02:21:37.526Z,7.78
2023-04-25T02:24:06.416Z,7.80
2023-04-25T02:26:35.421Z,7.81
2023-04-25T02:29:03.345Z,7.83
2023-04-25T02:31:31.162Z,7.82
2023-04-25T02:33:59.629Z,7.78
2023-04-25T02:36:31.168Z,7.75
2023-04-25T02:38:58.987Z,7.70
2023-04-25T02:41:27.708Z,7.71
2023-04-25T02:43:56.852Z,7.71
2023-04-25T02:46:35.801Z,7.69
2023-04-25T02:49:07.714Z,7.69
2023-04-25T02:51:39.119Z,7.61
2023-04-25T02:54:07.588Z,7.59
2023-04-25T02:56:38.231Z,7.53
2023-04-25T02:59:14.743Z,7.47
2023-04-25T03:01:42.676Z,7.47
2023-04-25T03:04:10.564Z,7.45
2023-04-25T03:06:38.380Z,7.43
2023-04-25T03:09:06.413Z,7.42
2023-04-25T03:11:34.500Z,7.41
2023-04-25T03:14:02.504Z,7.41
2023-04-25T03:16:30.534Z,7.37
2023-04-25T03:18:58.346Z,7.38
2023-04-25T03:21:27.318Z,7.34
2023-04-25T03:23:55.280Z,7.30
2023-04-25T03:26:23.371Z,7.27
2023-04-25T03:28:51.384Z,7.25
2023-04-25T03:31:19.301Z,7.23
2023-04-25T03:33:47.363Z,7.21
2023-04-25T03:36:15.729Z,7.21
2023-04-25T03:38:43.844Z,7.25
2023-04-25T03:41:12.537Z,7.25
2023-04-25T03:43:44.308Z,7.26
2023-04-25T03:46:14.255Z,7.22
2023-04-25T03:48:43.327Z,7.24
2023-04-25T03:51:13.593Z,7.27
2023-04-25T03:53:44.534Z,7.31
2023-04-25T03:56:21.768Z,7.31
2023-04-25T03:58:54.530Z,7.29
2023-04-25T04:01:24.398Z,7.25
2023-04-25T04:03:52.860Z,7.26
2023-04-25T04:06:21.735Z,7.27
2023-04-25T04:08:53.558Z,7.25
2023-04-25T04:11:23.293Z,7.29
2023-04-25T04:13:54.114Z,7.27
2023-04-25T04:16:22.324Z,7.25
2023-04-25T04:18:50.576Z,7.32
2023-04-25T04:21:18.503Z,7.33
2023-04-25T04:23:47.596Z,7.45
2023-04-25T04:26:17.315Z,7.53
2023-04-25T04:29:09.510Z,7.53
2023-04-25T04:31:57.765Z,7.57
2023-04-25T04:34:26.734Z,7.65
2023-04-25T04:36:54.840Z,7.68
2023-04-25T04:39:23.331Z,7.67
2023-04-25T04:42:06.685Z,7.70
2023-04-25T04:44:53.274Z,7.88
2023-04-25T04:47:47.574Z,7.92
2023-04-25T04:50:34.890Z,7.98
2023-04-25T04:53:22.970Z,8.06
2023-04-25T04:56:09.634Z,8.03
2023-04-25T04:58:55.625Z,8.03
2023-04-25T05:01:39.843Z,8.19
2023-04-25T05:04:23.606Z,8.28
2023-04-25T05:07:06.541Z,8.36
2023-04-25T05:09:49.981Z,8.44
2023-04-25T05:12:41.121Z,8.56
2023-04-25T05:15:18.277Z,8.67
2023-04-25T05:18:05.095Z,8.72
2023-04-25T05:20:43.063Z,8.82
2023-04-25T05:23:37.335Z,8.70
2023-04-25T05:26:14.954Z,8.81
2023-04-25T05:29:02.681Z,8.89
2023-04-25T05:31:55.637Z,8.85
2023-04-25T05:34:23.645Z,8.82
2023-04-25T05:36:58.274Z,8.90
2023-04-25T05:39:27.126Z,8.96
2023-04-25T05:41:57.936Z,8.98
2023-04-25T05:44:48.352Z,8.87
2023-04-25T05:47:26.163Z,8.87
2023-04-25T05:50:04.415Z,8.97
2023-04-25T05:53:01.717Z,9.04
2023-04-25T05:55:36.575Z,9.11
2023-04-25T05:58:18.708Z,9.08
2023-04-25T06:00:47.153Z,9.16
2023-04-25T06:03:20.518Z,9.29
2023-04-25T06:05:49.327Z,9.34
2023-04-25T06:08:17.959Z,9.15
2023-04-25T06:10:45.721Z,9.30
2023-04-25T06:13:13.670Z,9.54
2023-04-25T06:15:41.859Z,9.65
2023-04-25T06:18:09.871Z,9.57
2023-04-25T06:20:37.818Z,9.64
2023-04-25T06:23:05.759Z,9.52
2023-04-25T06:25:52.189Z,9.56
2023-04-25T06:28:20.238Z,9.62
2023-04-25T06:30:48.022Z,9.50
2023-04-25T06:33:18.668Z,9.56
2023-04-25T06:35:47.071Z,9.56
2023-04-25T06:38:16.913Z,9.62
2023-04-25T06:40:47.329Z,9.75
2023-04-25T06:43:15.950Z,9.79
2023-04-25T06:45:55.215Z,9.82
2023-04-25T06:48:23.841Z,9.98
2023-04-25T06:50:52.137Z,10.12
2023-04-25T06:53:20.651Z,10.10
2023-04-25T06:55:51.355Z,9.91
2023-04-25T06:58:22.119Z,10.00
2023-04-25T07:01:16.517Z,10.13
2023-04-25T07:03:44.632Z,10.11
2023-04-25T07:06:16.616Z,10.23
2023-04-25T07:08:44.523Z,10.39
2023-04-25T07:11:12.477Z,10.32
2023-04-25T07:13:41.375Z,10.42
2023-04-25T07:16:09.482Z,10.44
2023-04-25T07:18:37.681Z,10.37
2023-04-25T07:21:05.851Z,10.59
2023-04-25T07:23:34.621Z,10.49
2023-04-25T07:26:05.321Z,10.06
2023-04-25T07:28:33.255Z,10.34
2023-04-25T07:31:01.208Z,10.81
2023-04-25T07:33:29.141Z,10.78
2023-04-25T07:35:57.626Z,10.70
2023-04-25T07:38:25.678Z,10.86
2023-04-25T07:40:53.537Z,10.98
2023-04-25T07:43:22.197Z,10.94
2023-04-25T07:45:59.220Z,10.65
2023-04-25T07:48:28.599Z,10.78
2023-04-25T07:50:57.823Z,10.93
2023-04-25T07:53:24.736Z,10.76
2023-04-25T07:55:55.687Z,10.80
2023-04-25T07:58:23.675Z,10.92
2023-04-25T08:01:02.848Z,10.81
2023-04-25T08:03:40.261Z,10.73
2023-04-25T08:06:13.011Z,10.79
2023-04-25T08:08:50.970Z,10.96
2023-04-25T08:11:20.961Z,10.92
2023-04-25T08:13:48.781Z,11.07
2023-04-25T08:16:17.623Z,11.26
2023-04-25T08:18:45.665Z,10.76
2023-04-25T08:21:14.237Z,11.05
2023-04-25T08:23:43.605Z,11.27
2023-04-25T08:26:15.899Z,11.32
2023-04-25T08:28:44.332Z,11.50
2023-04-25T08:31:12.210Z,11.97
2023-04-25T08:33:47.754Z,11.83
2023-04-25T08:36:38.452Z,12.06
2023-04-25T08:39:15.768Z,11.84
2023-04-25T08:41:53.641Z,11.84
2023-04-25T08:44:21.948Z,11.86
2023-04-25T08:46:51.110Z,11.65
2023-04-25T08:49:34.526Z,11.72
2023-04-25T08:52:07.344Z,12.07
2023-04-25T08:54:48.474Z,12.27
2023-04-25T08:57:16.607Z,12.22
2023-04-25T08:59:46.910Z,12.52
2023-04-25T09:02:17.677Z,12.18
2023-04-25T09:04:59.105Z,12.21
2023-04-25T09:07:41.383Z,12.17
2023-04-25T09:10:11.709Z,12.52
2023-04-25T09:12:40.366Z,12.44
2023-04-25T09:15:20.291Z,12.13
2023-04-25T09:18:05.771Z,12.05
2023-04-25T09:23:22.784Z,12.16
2023-04-25T09:25:54.594Z,12.05
2023-04-25T09:28:30.130Z,11.97
2023-04-25T09:30:59.693Z,12.19
2023-04-25T09:33:38.832Z,12.29
2023-04-25T09:36:14.373Z,12.25
2023-04-25T09:39:00.734Z,12.25
2023-04-25T09:41:30.749Z,12.33
2023-04-25T09:44:05.160Z,12.33
2023-04-25T09:46:39.188Z,12.14
2023-04-25T09:49:10.344Z,11.87
2023-04-25T09:51:58.730Z,11.85
2023-04-25T09:54:29.114Z,12.00
2023-04-25T09:57:17.400Z,11.88
2023-04-25T09:59:54.311Z,12.28
2023-04-25T10:02:26.462Z,12.61
2023-04-25T10:04:57.237Z,12.30
2023-04-25T10:07:39.040Z,11.85
2023-04-25T10:10:11.045Z,11.99
2023-04-25T10:12:41.363Z,12.17
2023-04-25T10:15:10.168Z,12.01
2023-04-25T10:17:38.098Z,12.26
2023-04-25T10:20:12.072Z,12.12
2023-04-25T10:22:46.024Z,11.81
2023-04-25T10:25:14.866Z,12.22
2023-04-25T10:27:42.736Z,12.31
2023-04-25T10:30:17.279Z,12.38
2023-04-25T10:32:46.504Z,12.26
2023-04-25T10:35:24.780Z,12.35
2023-04-25T10:38:01.536Z,12.44
2023-04-25T10:40:29.700Z,12.49
2023-04-25T10:43:32.863Z,12.39
2023-04-25T10:46:01.636Z,12.27
2023-04-25T10:48:31.538Z,12.27
2023-04-25T10:51:16.575Z,12.13
2023-04-25T10:54:09.593Z,12.04
2023-04-25T10:56:38.914Z,11.89
2023-04-25T10:59:17.685Z,11.50
2023-04-25T11:01:52.888Z,11.61
2023-04-25T11:04:35.059Z,11.79
2023-04-25T11:07:07.154Z,12.01
2023-04-25T11:09:40.077Z,12.34
2023-04-25T11:12:13.651Z,12.64
2023-04-25T11:14:45.295Z,12.98
2023-04-25T11:17:14.207Z,13.43
2023-04-25T11:19:43.100Z,13.66
2023-04-25T11:22:11.516Z,14.01
2023-04-25T11:24:39.434Z,14.34
2023-04-25T11:27:07.324Z,13.82
2023-04-25T11:29:36.289Z,13.44
2023-04-25T11:32:05.028Z,13.18
2023-04-25T11:34:34.349Z,13.20
2023-04-25T11:37:03.802Z,13.30
2023-04-25T11:39:31.776Z,13.01
2023-04-25T11:42:00.899Z,12.98
2023-04-25T11:44:30.800Z,13.19
2023-04-25T11:46:58.952Z,13.09
2023-04-25T11:49:32.688Z,12.86
2023-04-25T11:52:00.804Z,12.73
2023-04-25T11:54:28.733Z,12.49
2023-04-25T11:56:57.508Z,12.49
2023-04-25T11:59:26.960Z,12.34
2023-04-25T12:01:55.152Z,12.13
2023-04-25T12:04:25.800Z,12.02
2023-04-25T12:06:56.074Z,12.14
2023-04-25T12:09:34.769Z,11.97
2023-04-25T12:12:06.518Z,12.03
2023-04-25T12:14:36.578Z,12.24
2023-04-25T12:17:08.518Z,12.42
2023-04-25T12:19:41.212Z,12.53
2023-04-25T12:22:23.677Z,12.72
2023-04-25T12:24:52.353Z,12.85
2023-04-25T12:27:20.472Z,12.68
2023-04-25T12:29:54.502Z,12.77
2023-04-25T12:32:22.750Z,12.96
2023-04-25T12:34:50.842Z,12.97
2023-04-25T12:37:18.726Z,12.52
2023-04-25T12:39:47.003Z,12.39
2023-04-25T12:42:14.952Z,12.59
2023-04-25T12:44:43.028Z,12.57
2023-04-25T12:47:11.420Z,12.70
2023-04-25T12:49:39.366Z,12.99
2023-04-25T12:52:07.330Z,12.92
2023-04-25T12:54:35.253Z,12.87
2023-04-25T12:57:03.916Z,13.41
2023-04-25T12:59:32.314Z,13.43
2023-04-25T13:02:00.448Z,13.24
2023-04-25T13:04:28.702Z,13.66
2023-04-25T13:06:56.880Z,13.11
2023-04-25T13:09:24.800Z,13.10
2023-04-25T13:11:54.912Z,12.80
2023-04-25T13:14:25.068Z,12.44
2023-04-25T13:16:53.002Z,11.88
2023-04-25T13:19:21.215Z,11.12
2023-04-25T13:21:49.023Z,10.62
2023-04-25T13:24:16.848Z,10.61
2023-04-25T13:26:44.879Z,10.52
2023-04-25T13:29:12.701Z,10.67
2023-04-25T13:31:40.605Z,10.73
2023-04-25T13:34:08.699Z,10.82
2023-04-25T13:36:36.528Z,10.80
2023-04-25T13:39:05.803Z,10.81
2023-04-25T13:41:33.681Z,10.77
2023-04-25T13:44:01.855Z,10.77
2023-04-25T13:46:44.787Z,10.81
2023-04-25T13:49:14.712Z,10.96
2023-04-25T13:51:43.499Z,11.12
2023-04-25T13:54:20.825Z,11.25
2023-04-25T13:56:50.382Z,11.31
2023-04-25T13:59:20.369Z,11.53
2023-04-25T14:01:48.201Z,11.55
2023-04-25T14:04:16.263Z,11.66
2023-04-25T14:06:47.581Z,11.73
2023-04-25T14:09:16.113Z,11.68
2023-04-25T14:11:43.872Z,11.66
2023-04-25T14:14:11.700Z,11.62
2023-04-25T14:16:39.620Z,11.44
2023-04-25T14:19:07.498Z,11.08
2023-04-25T14:21:36.051Z,10.51
2023-04-25T14:24:04.067Z,10.22
2023-04-25T14:26:32.234Z,10.15
2023-04-25T14:29:00.121Z,10.09
2023-04-25T14:31:29.368Z,11.14
2023-04-25T14:33:59.320Z,11.78
2023-04-25T14:36:33.048Z,11.03
2023-04-25T14:39:06.318Z,10.70
2023-04-25T14:41:34.292Z,10.53
2023-04-25T14:44:04.342Z,10.75
2023-04-25T14:46:32.432Z,10.91
2023-04-25T14:49:00.915Z,10.82
2023-04-25T14:51:30.305Z,10.86
2023-04-25T14:53:59.274Z,10.81
2023-04-25T14:56:27.512Z,10.79
2023-04-25T14:58:55.350Z,11.01
2023-04-25T15:01:23.767Z,11.06
2023-04-25T15:03:52.446Z,11.30
2023-04-25T15:06:22.696Z,11.56
2023-04-25T15:08:50.625Z,11.76
2023-04-25T15:11:21.467Z,11.60
2023-04-25T15:13:49.605Z,11.56
2023-04-25T15:16:17.548Z,11.60
2023-04-25T15:18:45.364Z,11.67
2023-04-25T15:21:13.299Z,11.45
2023-04-25T15:23:41.303Z,11.43
2023-04-25T15:26:09.219Z,11.23
2023-04-25T15:28:37.336Z,11.29
2023-04-25T15:31:05.338Z,11.27
2023-04-25T15:33:33.282Z,11.14
2023-04-25T15:36:01.100Z,11.24
2023-04-25T15:38:28.946Z,11.19
2023-04-25T15:40:56.905Z,11.00
2023-04-25T15:43:24.942Z,10.89
2023-04-25T15:45:53.136Z,10.91
2023-04-25T15:48:21.282Z,10.83
2023-04-25T15:50:49.257Z,10.88
2023-04-25T15:53:17.060Z,10.83
2023-04-25T15:55:45.061Z,10.68
2023-04-25T15:58:12.921Z,10.63
2023-04-25T16:00:41.492Z,10.58
2023-04-25T16:03:09.950Z,10.66
2023-04-25T16:05:38.004Z,10.63
2023-04-25T16:08:06.011Z,10.63
2023-04-25T16:10:33.834Z,10.53
2023-04-25T16:13:01.720Z,10.58
2023-04-25T16:15:29.526Z,10.66
2023-04-25T16:17:58.719Z,10.58
2023-04-25T16:20:27.282Z,10.52
2023-04-25T16:22:55.450Z,10.34
2023-04-25T16:25:23.482Z,10.35
2023-04-25T16:27:51.904Z,10.37
2023-04-25T16:30:20.490Z,10.33
2023-04-25T16:32:50.803Z,10.24
2023-04-25T16:35:18.838Z,10.19
2023-04-25T16:37:46.848Z,10.30
2023-04-25T16:40:14.734Z,10.38
2023-04-25T16:42:42.544Z,10.42
2023-04-25T16:45:11.062Z,10.46
2023-04-25T16:47:38.935Z,10.46
2023-04-25T16:50:07.672Z,10.40
2023-04-25T16:52:35.454Z,10.49
2023-04-25T16:55:03.618Z,10.43
2023-04-25T16:57:31.374Z,10.18
2023-04-25T16:59:59.215Z,10.10
2023-04-25T17:02:29.506Z,10.14
2023-04-25T17:04:57.757Z,10.16
2023-04-25T17:07:25.867Z,10.10
2023-04-25T17:09:53.746Z,10.03
2023-04-25T17:12:21.736Z,9.97
2023-04-25T17:14:50.157Z,9.96
2023-04-25T17:17:18.924Z,9.89
2023-04-25T17:19:47.069Z,9.71
2023-04-25T17:22:15.191Z,9.51
2023-04-25T17:24:43.179Z,9.39
2023-04-25T17:27:11.614Z,9.32
2023-04-25T17:29:39.492Z,9.26
2023-04-25T17:32:07.472Z,9.24
2023-04-25T17:34:37.487Z,9.19
2023-04-25T17:37:06.078Z,9.05
2023-04-25T17:39:33.983Z,8.95
2023-04-25T17:42:02.307Z,8.94
2023-04-25T17:44:30.328Z,8.88
2023-04-25T17:46:58.801Z,8.87
2023-04-25T17:49:26.806Z,8.86
2023-04-25T17:51:54.728Z,8.78
2023-04-25T17:54:22.701Z,8.77
2023-04-25T17:56:51.019Z,8.76
2023-04-25T17:59:19.278Z,8.67
2023-04-25T18:01:48.290Z,8.63
2023-04-25T18:04:17.439Z,8.59
2023-04-25T18:06:45.271Z,8.54
2023-04-25T18:09:16.067Z,8.49
2023-04-25T18:11:47.669Z,8.46
2023-04-25T18:14:16.989Z,8.40
2023-04-25T18:16:45.083Z,8.33
2023-04-25T18:19:16.464Z,8.25
2023-04-25T18:21:45.850Z,8.19
2023-04-25T18:24:13.916Z,8.14
2023-04-25T18:26:42.095Z,8.13
2023-04-25T18:29:29.023Z,8.09
2023-04-25T18:32:01.382Z,8.03
2023-04-25T18:34:30.478Z,7.99
2023-04-25T18:36:58.381Z,7.97
2023-04-25T18:39:27.249Z,7.92
2023-04-25T18:42:04.075Z,7.90
2023-04-25T18:44:39.478Z,7.84
2023-04-25T18:47:08.363Z,7.84
2023-04-25T18:49:37.418Z,7.80
2023-04-25T18:52:10.412Z,7.77
2023-04-25T18:54:38.926Z,7.75
2023-04-25T18:57:06.832Z,7.75
2023-04-25T18:59:34.818Z,7.72
2023-04-25T19:02:04.335Z,7.68
2023-04-25T19:04:32.722Z,7.67
2023-04-25T19:07:01.236Z,7.66
2023-04-25T19:09:29.081Z,7.64
2023-04-25T19:11:57.452Z,7.60
2023-04-25T19:14:26.186Z,7.46
2023-04-25T19:16:54.086Z,7.48
2023-04-25T19:19:22.054Z,7.45
2023-04-25T19:21:50.669Z,7.43
2023-04-25T19:24:18.599Z,7.44
2023-04-25T19:26:46.490Z,7.44
2023-04-25T19:29:18.024Z,7.46
2023-04-25T19:31:45.997Z,7.49
2023-04-25T19:34:14.010Z,7.48
2023-04-25T19:36:42.589Z,7.50
2023-04-25T19:39:10.881Z,7.55
2023-04-25T19:41:41.998Z,7.57
2023-04-25T19:44:09.956Z,7.61
2023-04-25T19:46:38.311Z,7.63
2023-04-25T19:49:07.512Z,7.65
2023-04-25T19:51:37.570Z,7.66
2023-04-25T19:54:05.967Z,7.71
2023-04-25T19:56:34.173Z,7.72
2023-04-25T19:59:02.317Z,7.74
2023-04-25T20:01:30.605Z,7.84
2023-04-25T20:03:58.736Z,7.92
2023-04-25T20:06:27.193Z,7.93
2023-04-25T20:08:55.891Z,7.97
2023-04-25T20:11:24.065Z,8.00
2023-04-25T20:13:52.165Z,7.99
2023-04-25T20:16:21.730Z,7.98
2023-04-25T20:18:50.153Z,8.03
2023-04-25T20:21:19.672Z,8.06
2023-04-25T20:23:47.531Z,8.04
2023-04-25T20:26:15.711Z,8.05
2023-04-25T20:28:43.654Z,8.03
2023-04-25T20:31:11.865Z,7.98
2023-04-25T20:33:41.666Z,7.94
2023-04-25T20:36:09.877Z,7.89
2023-04-25T20:38:37.784Z,7.86
2023-04-25T20:41:05.674Z,7.85
2023-04-25T20:43:33.556Z,7.81
2023-04-25T20:46:01.542Z,7.81
2023-04-25T20:48:29.534Z,7.82
2023-04-25T20:50:58.475Z,7.81
2023-04-25T20:53:26.358Z,7.80
2023-04-25T20:55:54.207Z,7.82
2023-04-25T20:58:21.989Z,7.79
2023-04-25T21:00:50.721Z,7.74
2023-04-25T21:03:18.818Z,7.76
2023-04-25T21:05:46.954Z,7.72
2023-04-25T21:08:17.393Z,7.68
2023-04-25T21:10:45.300Z,7.67
2023-04-25T21:13:13.255Z,7.61
2023-04-25T21:15:41.145Z,7.62
2023-04-25T21:18:09.094Z,7.59
2023-04-25T21:20:37.086Z,7.57
2023-04-25T21:23:04.885Z,7.55
2023-04-25T21:25:32.761Z,7.54
2023-04-25T21:28:02.239Z,7.47
2023-04-25T21:30:30.821Z,7.47
2023-04-25T21:32:58.814Z,7.42
2023-04-25T21:35:26.659Z,7.41
2023-04-25T21:37:54.636Z,7.37
2023-04-25T21:40:22.574Z,7.38
2023-04-25T21:42:53.151Z,7.36
2023-04-25T21:45:21.218Z,7.34
2023-04-25T21:47:50.815Z,7.37
2023-04-25T21:50:19.592Z,7.40
2023-04-25T21:52:48.340Z,7.36
2023-04-25T21:55:17.295Z,7.36
2023-04-25T21:57:45.245Z,7.32
2023-04-25T22:00:24.856Z,7.33
2023-04-25T22:02:55.742Z,7.29
2023-04-25T22:05:26.460Z,7.28
2023-04-25T22:07:58.716Z,7.24
2023-04-25T22:10:26.597Z,7.21
2023-04-25T22:12:54.455Z,7.18
2023-04-25T22:15:24.005Z,7.13
2023-04-25T22:17:55.049Z,7.10
2023-04-25T22:20:25.965Z,7.10
2023-04-25T22:22:55.787Z,7.02
2023-04-25T22:25:23.829Z,7.02
2023-04-25T22:27:51.810Z,6.98
2023-04-25T22:30:19.719Z,6.93
2023-04-25T22:32:47.697Z,6.93
2023-04-25T22:35:15.661Z,6.94
2023-04-25T22:37:43.532Z,6.88
2023-04-25T22:40:12.395Z,6.81
2023-04-25T22:42:42.093Z,6.80
2023-04-25T22:45:11.362Z,6.84
2023-04-25T22:47:39.907Z,6.85
2023-04-25T22:50:13.915Z,6.86
2023-04-25T22:52:42.825Z,6.84
2023-04-25T22:55:12.085Z,6.80
2023-04-25T22:57:41.301Z,6.73
2023-04-25T23:00:19.664Z,6.69
2023-04-25T23:02:48.713Z,6.69
2023-04-25T23:05:16.807Z,6.66
2023-04-25T23:07:45.140Z,6.60
2023-04-25T23:10:14.125Z,6.58
2023-04-25T23:12:42.317Z,6.55
2023-04-25T23:15:12.560Z,6.56
2023-04-25T23:17:40.719Z,6.54
2023-04-25T23:20:11.052Z,6.51
2023-04-25T23:22:38.971Z,6.50
2023-04-25T23:25:08.216Z,6.49
2023-04-25T23:27:36.991Z,6.50
2023-04-25T23:30:06.409Z,6.51
2023-04-25T23:32:34.465Z,6.49
2023-04-25T23:35:04.906Z,6.51
2023-04-25T23:37:34.426Z,6.47
2023-04-25T23:40:08.452Z,6.44
2023-04-25T23:42:37.657Z,6.41
2023-04-25T23:45:07.874Z,6.37
2023-04-25T23:47:36.342Z,6.30
2023-04-25T23:50:06.008Z,6.24
2023-04-25T23:52:33.858Z,6.22
2023-04-25T23:55:02.007Z,6.15
2023-04-25T23:57:29.901Z,6.11
2023-04-25T23:59:58.188Z,6.04
